sensor_id;sensor_type;location;lat;lon;timestamp;pressure;altitude;pressure_sealevel;temperature;humidity
4398;BME280;2213;49.720;7.296;2022-09-12T00:00:13;98290.78;;;14.09;100.00
4398;BME280;2213;49.720;7.296;2022-09-12T00:02:43;98286.13;;;14.04;100.00
4398;BME280;2213;49.720;7.296;2022-09-12T00:05:12;98285.31;;;14.04;100.00
4398;BME280;2213;49.720;7.296;2022-09-12T00:07:40;98287.34;;;14.02;100.00
4398;BME280;2213;49.720;7.296;2022-09-12T00:10:09;98281.47;;;13.93;100.00
4398;BME280;2213;49.720;7.296;2022-09-12T00:12:39;98280.06;;;13.91;100.00
4398;BME280;2213;49.720;7.296;2022-09-12T00:15:08;98287.13;;;13.97;100.00
4398;BME280;2213;49.720;7.296;2022-09-12T00:17:39;98284.31;;;13.98;100.00
4398;BME280;2213;49.720;7.296;2022-09-12T00:20:09;98279.41;;;13.95;100.00
4398;BME280;2213;49.720;7.296;2022-09-12T00:22:39;98274.56;;;13.92;100.00
4398;BME280;2213;49.720;7.296;2022-09-12T00:25:08;98282.88;;;13.89;100.00
4398;BME280;2213;49.720;7.296;2022-09-12T00:27:37;98287.72;;;13.86;100.00
4398;BME280;2213;49.720;7.296;2022-09-12T00:30:07;98279.84;;;13.86;100.00
4398;BME280;2213;49.720;7.296;2022-09-12T00:32:36;98277.19;;;13.86;100.00
4398;BME280;2213;49.720;7.296;2022-09-12T00:35:07;98274.56;;;13.86;100.00
4398;BME280;2213;49.720;7.296;2022-09-12T00:37:35;98275.38;;;13.80;100.00
4398;BME280;2213;49.720;7.296;2022-09-12T00:40:06;98270.94;;;13.67;100.00
4398;BME280;2213;49.720;7.296;2022-09-12T00:42:35;98268.09;;;13.62;100.00
4398;BME280;2213;49.720;7.296;2022-09-12T00:45:19;98274.56;;;13.59;100.00
4398;BME280;2213;49.720;7.296;2022-09-12T00:47:48;98272.94;;;13.58;100.00
4398;BME280;2213;49.720;7.296;2022-09-12T00:50:19;98266.88;;;13.51;100.00
4398;BME280;2213;49.720;7.296;2022-09-12T00:52:51;98269.72;;;13.50;100.00
4398;BME280;2213;49.720;7.296;2022-09-12T00:55:25;98268.28;;;13.54;100.00
4398;BME280;2213;49.720;7.296;2022-09-12T00:58:01;98265.88;;;13.52;100.00
4398;BME280;2213;49.720;7.296;2022-09-12T01:00:31;98261.84;;;13.50;100.00
4398;BME280;2213;49.720;7.296;2022-09-12T01:03:04;98262.19;;;13.47;100.00
4398;BME280;2213;49.720;7.296;2022-09-12T01:05:41;98253.72;;;13.45;100.00
4398;BME280;2213;49.720;7.296;2022-09-12T01:08:12;98255.34;;;13.39;100.00
4398;BME280;2213;49.720;7.296;2022-09-12T01:10:42;98259.16;;;13.37;100.00
4398;BME280;2213;49.720;7.296;2022-09-12T01:13:13;98258.94;;;13.25;100.00
4398;BME280;2213;49.720;7.296;2022-09-12T01:15:42;98254.50;;;13.26;100.00
4398;BME280;2213;49.720;7.296;2022-09-12T01:18:20;98250.28;;;13.31;100.00
4398;BME280;2213;49.720;7.296;2022-09-12T01:21:19;98252.91;;;13.31;100.00
4398;BME280;2213;49.720;7.296;2022-09-12T01:24:37;98248.63;;;13.30;100.00
4398;BME280;2213;49.720;7.296;2022-09-12T01:27:47;98240.34;;;13.20;100.00
4398;BME280;2213;49.720;7.296;2022-09-12T01:30:53;98238.91;;;13.11;100.00
4398;BME280;2213;49.720;7.296;2022-09-12T01:33:38;98245.16;;;13.10;100.00
4398;BME280;2213;49.720;7.296;2022-09-12T01:36:39;98236.03;;;13.06;100.00
4398;BME280;2213;49.720;7.296;2022-09-12T01:39:22;98236.63;;;13.01;100.00
4398;BME280;2213;49.720;7.296;2022-09-12T01:42:08;98242.91;;;13.07;100.00
4398;BME280;2213;49.720;7.296;2022-09-12T01:44:49;98237.44;;;13.02;100.00
4398;BME280;2213;49.720;7.296;2022-09-12T01:47:35;98234.38;;;12.98;100.00
4398;BME280;2213;49.720;7.296;2022-09-12T01:50:12;98229.75;;;12.94;100.00
4398;BME280;2213;49.720;7.296;2022-09-12T01:52:48;98233.97;;;12.95;100.00
4398;BME280;2213;49.720;7.296;2022-09-12T01:55:23;98238.03;;;12.91;100.00
4398;BME280;2213;49.720;7.296;2022-09-12T01:58:02;98234.75;;;12.89;100.00
4398;BME280;2213;49.720;7.296;2022-09-12T02:00:39;98235.75;;;12.88;100.00
4398;BME280;2213;49.720;7.296;2022-09-12T02:03:16;98230.72;;;12.86;100.00
4398;BME280;2213;49.720;7.296;2022-09-12T02:05:52;98230.31;;;12.83;100.00
4398;BME280;2213;49.720;7.296;2022-09-12T02:08:27;98230.31;;;12.83;100.00
4398;BME280;2213;49.720;7.296;2022-09-12T02:11:06;98221.81;;;12.81;100.00
4398;BME280;2213;49.720;7.296;2022-09-12T02:13:39;98213.34;;;12.85;100.00
4398;BME280;2213;49.720;7.296;2022-09-12T02:16:13;98215.78;;;12.87;100.00
4398;BME280;2213;49.720;7.296;2022-09-12T02:18:51;98213.75;;;12.89;100.00
4398;BME280;2213;49.720;7.296;2022-09-12T02:21:23;98216.38;;;12.82;100.00
4398;BME280;2213;49.720;7.296;2022-09-12T02:23:57;98220.59;;;12.77;100.00
4398;BME280;2213;49.720;7.296;2022-09-12T02:26:33;98204.22;;;12.75;100.00
4398;BME280;2213;49.720;7.296;2022-09-12T02:29:04;98207.28;;;12.78;100.00
4398;BME280;2213;49.720;7.296;2022-09-12T02:31:43;98206.25;;;12.73;100.00
4398;BME280;2213;49.720;7.296;2022-09-12T02:34:26;98208.66;;;12.74;100.00
4398;BME280;2213;49.720;7.296;2022-09-12T02:37:06;98213.31;;;12.72;100.00
4398;BME280;2213;49.720;7.296;2022-09-12T02:39:39;98215.34;;;12.70;100.00
4398;BME280;2213;49.720;7.296;2022-09-12T02:42:11;98219.13;;;12.68;100.00
4398;BME280;2213;49.720;7.296;2022-09-12T02:44:41;98213.28;;;12.66;100.00
4398;BME280;2213;49.720;7.296;2022-09-12T02:47:19;98214.69;;;12.68;100.00
4398;BME280;2213;49.720;7.296;2022-09-12T02:49:53;98212.84;;;12.55;100.00
4398;BME280;2213;49.720;7.296;2022-09-12T02:52:22;98216.88;;;12.58;100.00
4398;BME280;2213;49.720;7.296;2022-09-12T02:54:53;98210.81;;;12.51;100.00
4398;BME280;2213;49.720;7.296;2022-09-12T02:57:22;98209.59;;;12.53;100.00
4398;BME280;2213;49.720;7.296;2022-09-12T02:59:55;98205.56;;;12.57;100.00
4398;BME280;2213;49.720;7.296;2022-09-12T03:02:45;98199.94;;;12.60;100.00
4398;BME280;2213;49.720;7.296;2022-09-12T03:05:24;98206.22;;;12.59;100.00
4398;BME280;2213;49.720;7.296;2022-09-12T03:08:41;98209.59;;;12.53;100.00
4398;BME280;2213;49.720;7.296;2022-09-12T03:14:37;98203.94;;;12.56;100.00
4398;BME280;2213;49.720;7.296;2022-09-12T03:17:21;98202.31;;;12.49;100.00
4398;BME280;2213;49.720;7.296;2022-09-12T03:20:02;98207.16;;;12.45;100.00
4398;BME280;2213;49.720;7.296;2022-09-12T03:22:47;98203.31;;;12.48;100.00
4398;BME280;2213;49.720;7.296;2022-09-12T03:25:25;98203.31;;;12.48;100.00
4398;BME280;2213;49.720;7.296;2022-09-12T03:27:59;98198.25;;;12.46;100.00
4398;BME280;2213;49.720;7.296;2022-09-12T03:30:38;98199.47;;;12.44;100.00
4398;BME280;2213;49.720;7.296;2022-09-12T03:33:11;98198.06;;;12.41;100.00
4398;BME280;2213;49.720;7.296;2022-09-12T03:35:41;98196.41;;;12.34;100.00
4398;BME280;2213;49.720;7.296;2022-09-12T03:38:11;98198.59;;;12.30;100.00
4398;BME280;2213;49.720;7.296;2022-09-12T03:40:40;98198.59;;;12.30;100.00
4398;BME280;2213;49.720;7.296;2022-09-12T03:43:09;98206.28;;;12.32;100.00
4398;BME280;2213;49.720;7.296;2022-09-12T03:45:38;98208.28;;;12.30;100.00
4398;BME280;2213;49.720;7.296;2022-09-12T03:48:08;98203.25;;;12.28;100.00
4398;BME280;2213;49.720;7.296;2022-09-12T03:50:37;98201.38;;;12.22;100.00
4398;BME280;2213;49.720;7.296;2022-09-12T03:53:06;98207.00;;;12.19;100.00
4398;BME280;2213;49.720;7.296;2022-09-12T03:55:38;98200.16;;;12.18;100.00
4398;BME280;2213;49.720;7.296;2022-09-12T03:58:06;98203.75;;;12.10;100.00
4398;BME280;2213;49.720;7.296;2022-09-12T04:00:37;98199.66;;;12.08;100.00
4398;BME280;2213;49.720;7.296;2022-09-12T04:03:07;98198.47;;;12.04;100.00
4398;BME280;2213;49.720;7.296;2022-09-12T04:05:36;98208.50;;;12.00;100.00
4398;BME280;2213;49.720;7.296;2022-09-12T04:08:05;98197.22;;;12.00;100.00
4398;BME280;2213;49.720;7.296;2022-09-12T04:10:35;98204.06;;;12.01;100.00
4398;BME280;2213;49.720;7.296;2022-09-12T04:13:05;98200.41;;;11.95;100.00
4398;BME280;2213;49.720;7.296;2022-09-12T04:15:34;98192.38;;;11.97;100.00
4398;BME280;2213;49.720;7.296;2022-09-12T04:18:03;98194.78;;;11.98;100.00
4398;BME280;2213;49.720;7.296;2022-09-12T04:20:35;98192.78;;;12.00;100.00
4398;BME280;2213;49.720;7.296;2022-09-12T04:23:05;98184.72;;;12.02;100.00
4398;BME280;2213;49.720;7.296;2022-09-12T04:25:33;98181.50;;;12.00;100.00
4398;BME280;2213;49.720;7.296;2022-09-12T04:28:03;98184.50;;;11.97;100.00
4398;BME280;2213;49.720;7.296;2022-09-12T04:30:33;98178.44;;;11.96;100.00
4398;BME280;2213;49.720;7.296;2022-09-12T04:33:03;98175.00;;;11.96;100.00
4398;BME280;2213;49.720;7.296;2022-09-12T04:35:34;98175.41;;;11.93;100.00
4398;BME280;2213;49.720;7.296;2022-09-12T04:38:03;98186.28;;;11.90;100.00
4398;BME280;2213;49.720;7.296;2022-09-12T04:40:31;98173.16;;;11.90;100.00
4398;BME280;2213;49.720;7.296;2022-09-12T04:43:02;98186.28;;;11.90;100.00
4398;BME280;2213;49.720;7.296;2022-09-12T04:45:37;98187.25;;;11.89;100.00
4398;BME280;2213;49.720;7.296;2022-09-12T04:48:06;98182.41;;;11.86;100.00
4398;BME280;2213;49.720;7.296;2022-09-12T04:50:34;98178.16;;;11.85;100.00
4398;BME280;2213;49.720;7.296;2022-09-12T04:53:03;98179.78;;;11.86;100.00
4398;BME280;2213;49.720;7.296;2022-09-12T04:55:34;98178.16;;;11.85;100.00
4398;BME280;2213;49.720;7.296;2022-09-12T04:58:04;98175.38;;;11.86;100.00
4398;BME280;2213;49.720;7.296;2022-09-12T05:00:33;98181.78;;;11.84;100.00
4398;BME280;2213;49.720;7.296;2022-09-12T05:03:01;98175.31;;;11.80;100.00
4398;BME280;2213;49.720;7.296;2022-09-12T05:05:31;98179.31;;;11.76;100.00
4398;BME280;2213;49.720;7.296;2022-09-12T05:08:00;98176.06;;;11.74;100.00
4398;BME280;2213;49.720;7.296;2022-09-12T05:10:29;98175.69;;;11.77;100.00
4398;BME280;2213;49.720;7.296;2022-09-12T05:12:59;98183.75;;;11.75;100.00
4398;BME280;2213;49.720;7.296;2022-09-12T05:15:29;98174.88;;;11.76;100.00
4398;BME280;2213;49.720;7.296;2022-09-12T05:17:59;98186.16;;;11.77;100.00
4398;BME280;2213;49.720;7.296;2022-09-12T05:20:29;98177.31;;;11.78;100.00
4398;BME280;2213;49.720;7.296;2022-09-12T05:22:57;98180.72;;;11.78;100.00
4398;BME280;2213;49.720;7.296;2022-09-12T05:25:26;98178.88;;;11.72;100.00
4398;BME280;2213;49.720;7.296;2022-09-12T05:27:55;98177.63;;;11.68;100.00
4398;BME280;2213;49.720;7.296;2022-09-12T05:30:23;98176.63;;;11.69;100.00
4398;BME280;2213;49.720;7.296;2022-09-12T05:32:54;98177.44;;;11.70;100.00
4398;BME280;2213;49.720;7.296;2022-09-12T05:35:22;98173.19;;;11.69;100.00
4398;BME280;2213;49.720;7.296;2022-09-12T05:37:51;98182.69;;;11.70;100.00
4398;BME280;2213;49.720;7.296;2022-09-12T05:40:20;98177.63;;;11.68;100.00
4398;BME280;2213;49.720;7.296;2022-09-12T05:42:49;98178.06;;;11.72;100.00
4398;BME280;2213;49.720;7.296;2022-09-12T05:45:18;98187.34;;;11.74;100.00
4398;BME280;2213;49.720;7.296;2022-09-12T05:47:48;98185.81;;;11.80;100.00
4398;BME280;2213;49.720;7.296;2022-09-12T05:50:21;98186.84;;;11.85;100.00
4398;BME280;2213;49.720;7.296;2022-09-12T05:52:49;98192.88;;;11.86;100.00
4398;BME280;2213;49.720;7.296;2022-09-12T05:55:18;98188.63;;;11.85;100.00
4398;BME280;2213;49.720;7.296;2022-09-12T05:57:46;98188.03;;;11.83;100.00
4398;BME280;2213;49.720;7.296;2022-09-12T06:00:16;98185.63;;;11.88;100.00
4398;BME280;2213;49.720;7.296;2022-09-12T06:02:50;98182.63;;;11.91;100.00
4398;BME280;2213;49.720;7.296;2022-09-12T06:05:20;98184.06;;;11.93;100.00
4398;BME280;2213;49.720;7.296;2022-09-12T06:07:50;98193.97;;;11.98;100.00
4398;BME280;2213;49.720;7.296;2022-09-12T06:10:19;98191.97;;;12.00;100.00
4398;BME280;2213;49.720;7.296;2022-09-12T06:12:49;98182.91;;;12.02;100.00
4398;BME280;2213;49.720;7.296;2022-09-12T06:15:18;98187.75;;;12.05;100.00
4398;BME280;2213;49.720;7.296;2022-09-12T06:17:48;98183.16;;;12.07;100.00
4398;BME280;2213;49.720;7.296;2022-09-12T06:20:17;98182.16;;;12.15;100.00
4398;BME280;2213;49.720;7.296;2022-09-12T06:22:52;98175.53;;;12.19;100.00
4398;BME280;2213;49.720;7.296;2022-09-12T06:25:20;98187.66;;;12.20;100.00
4398;BME280;2213;49.720;7.296;2022-09-12T06:27:49;98193.72;;;12.21;100.00
4398;BME280;2213;49.720;7.296;2022-09-12T06:30:17;98189.88;;;12.23;100.00
4398;BME280;2213;49.720;7.296;2022-09-12T06:32:51;98185.88;;;12.27;100.00
4398;BME280;2213;49.720;7.296;2022-09-12T06:35:20;98188.50;;;12.27;100.00
4398;BME280;2213;49.720;7.296;2022-09-12T06:37:50;98180.84;;;12.32;100.00
4398;BME280;2213;49.720;7.296;2022-09-12T06:40:19;98183.69;;;12.37;100.00
4398;BME280;2213;49.720;7.296;2022-09-12T06:42:48;98183.94;;;12.42;100.00
4398;BME280;2213;49.720;7.296;2022-09-12T06:45:16;98184.13;;;12.41;100.00
4398;BME280;2213;49.720;7.296;2022-09-12T06:47:46;98190.78;;;12.43;100.00
4398;BME280;2213;49.720;7.296;2022-09-12T06:50:16;98192.22;;;12.46;100.00
4398;BME280;2213;49.720;7.296;2022-09-12T06:52:47;98185.53;;;12.43;100.00
4398;BME280;2213;49.720;7.296;2022-09-12T06:55:18;98191.03;;;12.48;100.00
4398;BME280;2213;49.720;7.296;2022-09-12T06:57:54;98188.00;;;12.51;100.00
4398;BME280;2213;49.720;7.296;2022-09-12T07:00:23;98182.19;;;12.56;100.00
4398;BME280;2213;49.720;7.296;2022-09-12T07:02:54;98184.41;;;12.59;100.00
4398;BME280;2213;49.720;7.296;2022-09-12T07:05:22;98185.81;;;12.61;100.00
4398;BME280;2213;49.720;7.296;2022-09-12T07:07:52;98188.25;;;12.63;100.00
4398;BME280;2213;49.720;7.296;2022-09-12T07:10:22;98182.81;;;12.65;100.00
4398;BME280;2213;49.720;7.296;2022-09-12T07:12:50;98178.78;;;12.69;100.00
4398;BME280;2213;49.720;7.296;2022-09-12T07:15:20;98181.81;;;12.72;100.00
4398;BME280;2213;49.720;7.296;2022-09-12T07:17:49;98184.06;;;12.75;100.00
4398;BME280;2213;49.720;7.296;2022-09-12T07:20:18;98185.28;;;12.79;100.00
4398;BME280;2213;49.720;7.296;2022-09-12T07:22:46;98188.91;;;12.85;100.00
4398;BME280;2213;49.720;7.296;2022-09-12T07:25:15;98183.91;;;12.90;100.00
4398;BME280;2213;49.720;7.296;2022-09-12T07:27:45;98178.06;;;12.94;100.00
4398;BME280;2213;49.720;7.296;2022-09-12T07:30:17;98174.63;;;13.00;100.00
4398;BME280;2213;49.720;7.296;2022-09-12T07:32:46;98175.88;;;13.04;100.00
4398;BME280;2213;49.720;7.296;2022-09-12T07:35:15;98172.25;;;13.12;100.00
4398;BME280;2213;49.720;7.296;2022-09-12T07:37:44;98183.56;;;13.19;100.00
4398;BME280;2213;49.720;7.296;2022-09-12T07:40:13;98188.84;;;13.26;100.00
4398;BME280;2213;49.720;7.296;2022-09-12T07:42:41;98194.13;;;13.32;100.00
4398;BME280;2213;49.720;7.296;2022-09-12T07:45:11;98195.94;;;13.38;100.00
4398;BME280;2213;49.720;7.296;2022-09-12T07:47:40;98188.63;;;13.47;100.00
4398;BME280;2213;49.720;7.296;2022-09-12T07:50:09;98193.13;;;13.53;100.00
4398;BME280;2213;49.720;7.296;2022-09-12T07:52:38;98194.75;;;13.60;100.00
4398;BME280;2213;49.720;7.296;2022-09-12T07:55:07;98198.94;;;13.68;100.00
4398;BME280;2213;49.720;7.296;2022-09-12T07:57:35;98193.69;;;13.75;100.00
4398;BME280;2213;49.720;7.296;2022-09-12T08:00:05;98190.88;;;13.83;100.00
4398;BME280;2213;49.720;7.296;2022-09-12T08:02:37;98181.16;;;13.90;100.00
4398;BME280;2213;49.720;7.296;2022-09-12T08:05:07;98187.59;;;14.00;100.00
4398;BME280;2213;49.720;7.296;2022-09-12T08:07:36;98186.38;;;14.09;100.00
4398;BME280;2213;49.720;7.296;2022-09-12T08:10:06;98180.31;;;14.16;100.00
4398;BME280;2213;49.720;7.296;2022-09-12T08:12:35;98183.50;;;14.24;100.00
4398;BME280;2213;49.720;7.296;2022-09-12T08:15:06;98188.56;;;14.32;100.00
4398;BME280;2213;49.720;7.296;2022-09-12T08:17:36;98195.63;;;14.38;100.00
4398;BME280;2213;49.720;7.296;2022-09-12T08:20:05;98198.06;;;14.46;100.00
4398;BME280;2213;49.720;7.296;2022-09-12T08:22:36;98202.47;;;14.52;100.00
4398;BME280;2213;49.720;7.296;2022-09-12T08:25:06;98201.63;;;14.58;100.00
4398;BME280;2213;49.720;7.296;2022-09-12T08:27:35;98211.34;;;14.65;100.00
4398;BME280;2213;49.720;7.296;2022-09-12T08:30:05;98200.19;;;14.69;100.00
4398;BME280;2213;49.720;7.296;2022-09-12T08:32:35;98205.22;;;14.77;100.00
4398;BME280;2213;49.720;7.296;2022-09-12T08:35:05;98193.84;;;14.83;100.00
4398;BME280;2213;49.720;7.296;2022-09-12T08:37:34;98183.25;;;14.90;100.00
4398;BME280;2213;49.720;7.296;2022-09-12T08:40:03;98190.34;;;14.96;100.00
4398;BME280;2213;49.720;7.296;2022-09-12T08:42:53;98188.44;;;15.03;100.00
4398;BME280;2213;49.720;7.296;2022-09-12T08:45:33;98185.56;;;15.11;100.00
4398;BME280;2213;49.720;7.296;2022-09-12T08:48:10;98186.34;;;15.18;100.00
4398;BME280;2213;49.720;7.296;2022-09-12T08:50:40;98186.09;;;15.26;100.00
4398;BME280;2213;49.720;7.296;2022-09-12T08:53:20;98183.63;;;15.31;100.00
4398;BME280;2213;49.720;7.296;2022-09-12T08:55:55;98175.66;;;15.38;100.00
4398;BME280;2213;49.720;7.296;2022-09-12T08:58:28;98180.28;;;15.42;100.00
4398;BME280;2213;49.720;7.296;2022-09-12T09:01:05;98183.72;;;15.49;100.00
4398;BME280;2213;49.720;7.296;2022-09-12T09:04:11;98183.66;;;15.56;100.00
4398;BME280;2213;49.720;7.296;2022-09-12T09:10:07;98188.69;;;15.64;100.00
4398;BME280;2213;49.720;7.296;2022-09-12T09:12:51;98187.00;;;15.70;100.00
4398;BME280;2213;49.720;7.296;2022-09-12T09:15:44;98184.91;;;15.78;100.00
4398;BME280;2213;49.720;7.296;2022-09-12T09:18:21;98181.84;;;15.81;100.00
4398;BME280;2213;49.720;7.296;2022-09-12T09:20:56;98168.78;;;15.86;100.00
4398;BME280;2213;49.720;7.296;2022-09-12T09:23:32;98168.16;;;15.91;100.00
4398;BME280;2213;49.720;7.296;2022-09-12T09:26:10;98170.72;;;15.97;100.00
4398;BME280;2213;49.720;7.296;2022-09-12T09:28:46;98166.41;;;16.03;100.00
4398;BME280;2213;49.720;7.296;2022-09-12T09:31:20;98158.63;;;16.08;100.00
4398;BME280;2213;49.720;7.296;2022-09-12T09:33:52;98154.09;;;16.15;100.00
4398;BME280;2213;49.720;7.296;2022-09-12T09:36:37;98148.75;;;16.22;100.00
4398;BME280;2213;49.720;7.296;2022-09-12T09:39:23;98146.03;;;16.28;100.00
4398;BME280;2213;49.720;7.296;2022-09-12T09:42:18;98148.38;;;16.36;100.00
4398;BME280;2213;49.720;7.296;2022-09-12T09:44:55;98157.22;;;16.42;100.00
4398;BME280;2213;49.720;7.296;2022-09-12T09:47:26;98155.56;;;16.47;100.00
4398;BME280;2213;49.720;7.296;2022-09-12T09:49:54;98148.56;;;16.53;100.00
4398;BME280;2213;49.720;7.296;2022-09-12T09:52:29;98155.88;;;16.57;100.00
4398;BME280;2213;49.720;7.296;2022-09-12T09:55:00;98149.69;;;16.64;100.00
4398;BME280;2213;49.720;7.296;2022-09-12T09:57:44;98145.13;;;16.71;100.00
4398;BME280;2213;49.720;7.296;2022-09-12T10:00:30;98142.63;;;16.76;100.00
4398;BME280;2213;49.720;7.296;2022-09-12T10:03:14;98137.47;;;16.81;100.00
4398;BME280;2213;49.720;7.296;2022-09-12T10:05:51;98131.53;;;16.85;100.00
4398;BME280;2213;49.720;7.296;2022-09-12T10:08:23;98126.97;;;16.92;100.00
4398;BME280;2213;49.720;7.296;2022-09-12T10:10:58;98124.66;;;16.96;100.00
4398;BME280;2213;49.720;7.296;2022-09-12T10:13:39;98130.66;;;17.03;100.00
4398;BME280;2213;49.720;7.296;2022-09-12T10:16:18;98120.22;;;17.08;100.00
4398;BME280;2213;49.720;7.296;2022-09-12T10:18:51;98112.41;;;17.13;100.00
4398;BME280;2213;49.720;7.296;2022-09-12T10:21:27;98104.59;;;17.18;100.00
4398;BME280;2213;49.720;7.296;2022-09-12T10:24:03;98109.00;;;17.24;100.00
4398;BME280;2213;49.720;7.296;2022-09-12T10:26:37;98101.16;;;17.29;100.00
4398;BME280;2213;49.720;7.296;2022-09-12T10:29:15;98105.56;;;17.35;100.00
4398;BME280;2213;49.720;7.296;2022-09-12T10:31:49;98100.16;;;17.42;100.00
4398;BME280;2213;49.720;7.296;2022-09-12T10:34:28;98094.75;;;17.48;100.00
4398;BME280;2213;49.720;7.296;2022-09-12T10:37:04;98081.63;;;17.53;100.00
4398;BME280;2213;49.720;7.296;2022-09-12T10:39:36;98086.84;;;17.60;100.00
4398;BME280;2213;49.720;7.296;2022-09-12T10:42:06;98090.19;;;17.67;100.00
4398;BME280;2213;49.720;7.296;2022-09-12T10:44:35;98081.56;;;17.72;100.00
4398;BME280;2213;49.720;7.296;2022-09-12T10:47:21;98079.59;;;17.79;100.00
4398;BME280;2213;49.720;7.296;2022-09-12T10:49:50;98074.97;;;17.86;100.00
4398;BME280;2213;49.720;7.296;2022-09-12T10:52:23;98074.03;;;17.92;100.00
4398;BME280;2213;49.720;7.296;2022-09-12T10:54:53;98064.13;;;17.99;100.00
4398;BME280;2213;49.720;7.296;2022-09-12T10:57:59;98070.44;;;18.09;100.00
4398;BME280;2213;49.720;7.296;2022-09-12T11:00:40;98067.09;;;18.14;100.00
4398;BME280;2213;49.720;7.296;2022-09-12T11:03:21;98061.44;;;18.22;100.00
4398;BME280;2213;49.720;7.296;2022-09-12T11:05:54;98061.53;;;18.27;100.00
4398;BME280;2213;49.720;7.296;2022-09-12T11:08:50;98053.22;;;18.35;100.00
4398;BME280;2213;49.720;7.296;2022-09-12T11:11:51;98055.25;;;18.45;100.00
4398;BME280;2213;49.720;7.296;2022-09-12T11:14:50;98062.38;;;18.56;100.00
4398;BME280;2213;49.720;7.296;2022-09-12T11:17:40;98060.09;;;18.76;100.00
4398;BME280;2213;49.720;7.296;2022-09-12T11:20:51;98055.28;;;18.90;100.00
4398;BME280;2213;49.720;7.296;2022-09-12T11:23:52;98058.41;;;19.03;100.00
4398;BME280;2213;49.720;7.296;2022-09-12T11:26:49;98050.88;;;19.12;100.00
4398;BME280;2213;49.720;7.296;2022-09-12T11:29:44;98039.84;;;19.20;100.00
4398;BME280;2213;49.720;7.296;2022-09-12T11:32:59;98046.38;;;19.29;100.00
4398;BME280;2213;49.720;7.296;2022-09-12T11:35:33;98043.22;;;19.32;100.00
4398;BME280;2213;49.720;7.296;2022-09-12T11:38:36;98043.88;;;19.39;100.00
4398;BME280;2213;49.720;7.296;2022-09-12T11:41:15;98044.53;;;19.46;100.00
4398;BME280;2213;49.720;7.296;2022-09-12T11:43:52;98042.75;;;19.52;100.00
4398;BME280;2213;49.720;7.296;2022-09-12T11:46:30;98029.78;;;19.55;100.00
4398;BME280;2213;49.720;7.296;2022-09-12T11:49:16;98036.75;;;19.62;100.00
4398;BME280;2213;49.720;7.296;2022-09-12T11:51:52;98032.84;;;19.64;100.00
4398;BME280;2213;49.720;7.296;2022-09-12T11:54:31;98034.75;;;19.69;100.00
4398;BME280;2213;49.720;7.296;2022-09-12T11:57:12;98036.91;;;19.72;97.95
4398;BME280;2213;49.720;7.296;2022-09-12T11:59:51;98026.38;;;19.77;95.89
4398;BME280;2213;49.720;7.296;2022-09-12T12:02:26;98024.09;;;19.85;97.98
4398;BME280;2213;49.720;7.296;2022-09-12T12:05:08;98025.75;;;19.91;100.00
4398;BME280;2213;49.720;7.296;2022-09-12T12:07:53;98017.84;;;19.96;97.58
4398;BME280;2213;49.720;7.296;2022-09-12T12:10:35;98017.91;;;20.01;97.67
4398;BME280;2213;49.720;7.296;2022-09-12T12:13:15;98010.25;;;20.05;93.90
4398;BME280;2213;49.720;7.296;2022-09-12T12:15:50;98010.88;;;20.12;94.85
4398;BME280;2213;49.720;7.296;2022-09-12T12:18:23;98013.56;;;20.17;93.59
4398;BME280;2213;49.720;7.296;2022-09-12T12:20:55;98012.66;;;20.28;89.08
4398;BME280;2213;49.720;7.296;2022-09-12T12:23:30;98004.78;;;20.38;92.06
4398;BME280;2213;49.720;7.296;2022-09-12T12:26:01;98002.72;;;20.45;93.53
4398;BME280;2213;49.720;7.296;2022-09-12T12:28:58;98000.13;;;20.50;90.09
4398;BME280;2213;49.720;7.296;2022-09-12T12:31:28;97987.97;;;20.54;91.56
4398;BME280;2213;49.720;7.296;2022-09-12T12:34:25;97999.66;;;20.58;90.11
4398;BME280;2213;49.720;7.296;2022-09-12T12:36:55;97991.75;;;20.64;89.92
4398;BME280;2213;49.720;7.296;2022-09-12T12:39:57;97996.34;;;20.73;88.42
4398;BME280;2213;49.720;7.296;2022-09-12T12:43:04;97989.22;;;20.79;85.15
4398;BME280;2213;49.720;7.296;2022-09-12T12:46:06;97990.88;;;20.85;87.07
4398;BME280;2213;49.720;7.296;2022-09-12T12:48:55;97983.19;;;20.88;84.96
4398;BME280;2213;49.720;7.296;2022-09-12T12:51:55;97971.22;;;20.91;84.98
4398;BME280;2213;49.720;7.296;2022-09-12T12:54:49;97976.84;;;20.94;85.05
4398;BME280;2213;49.720;7.296;2022-09-12T12:57:46;97971.00;;;20.97;83.10
4398;BME280;2213;49.720;7.296;2022-09-12T13:00:31;97976.38;;;21.02;85.09
4398;BME280;2213;49.720;7.296;2022-09-12T13:03:10;97981.72;;;21.07;82.17
4398;BME280;2213;49.720;7.296;2022-09-12T13:05:56;97967.19;;;21.15;79.43
4398;BME280;2213;49.720;7.296;2022-09-12T13:08:30;97964.56;;;21.25;74.49
4398;BME280;2213;49.720;7.296;2022-09-12T13:11:05;97957.16;;;21.32;76.44
4398;BME280;2213;49.720;7.296;2022-09-12T13:13:48;97950.81;;;21.38;79.79
4398;BME280;2213;49.720;7.296;2022-09-12T13:16:33;97953.50;;;21.43;80.19
4398;BME280;2213;49.720;7.296;2022-09-12T13:19:06;97946.63;;;21.47;80.86
4398;BME280;2213;49.720;7.296;2022-09-12T13:21:55;97949.28;;;21.52;82.68
4398;BME280;2213;49.720;7.296;2022-09-12T13:24:24;97944.53;;;21.54;73.74
4398;BME280;2213;49.720;7.296;2022-09-12T13:26:53;97941.59;;;21.56;71.85
4398;BME280;2213;49.720;7.296;2022-09-12T13:29:26;97932.81;;;21.61;75.69
4398;BME280;2213;49.720;7.296;2022-09-12T13:31:58;97936.28;;;21.66;77.94
4398;BME280;2213;49.720;7.296;2022-09-12T13:34:30;97933.41;;;21.73;76.10
4398;BME280;2213;49.720;7.296;2022-09-12T13:40:26;97932.63;;;21.87;77.66
4398;BME280;2213;49.720;7.296;2022-09-12T13:43:13;97933.50;;;21.98;79.07
4398;BME280;2213;49.720;7.296;2022-09-12T13:45:45;97924.50;;;22.14;79.83
4398;BME280;2213;49.720;7.296;2022-09-12T13:48:19;97919.19;;;22.54;82.71
4398;BME280;2213;49.720;7.296;2022-09-12T13:50:52;97921.31;;;23.08;83.19
4398;BME280;2213;49.720;7.296;2022-09-12T13:53:27;97917.72;;;23.53;69.35
4398;BME280;2213;49.720;7.296;2022-09-12T13:56:01;97900.63;;;24.03;69.36
4398;BME280;2213;49.720;7.296;2022-09-12T13:58:33;97897.25;;;24.31;67.15
4398;BME280;2213;49.720;7.296;2022-09-12T14:01:09;97898.41;;;24.54;66.81
4398;BME280;2213;49.720;7.296;2022-09-12T14:03:41;97891.66;;;24.62;65.69
4398;BME280;2213;49.720;7.296;2022-09-12T14:06:34;97894.06;;;24.63;60.84